Alberton, MT (59820)

5:42 PM MDT on October 20, 2014 (GMT -0600)
Downtown Alberton | Change Station
CLOSE
Current Station
Personal Weather Station
Location: Alberton, MT
Elevation: 3048 ft
Nearby Weather Stations

Elev 3048 ft 47.00 °N, 114.48 °W | Updated 1 minute ago

Clear
Clear
61.9 °F
Feels Like 61.9 °F
N
0.0
Wind Variable Wind from South
Gusts 0.0 mph

Today
High -- | Low -- °F
--% Chance of Precip.
Yesterday
High -- | Low -- °F
Precip. -- in
8:03 AM 6:41 PM
Waning Crescent, 8% visible
Pressure 29.74 in
Visibility 10.0 miles
Clouds Clear
Dew Point 43 °F
Humidity 50%
Rainfall 0.00 in
Snow Depth 0 in
UV 1 out of 12
Pollen 1.90 out of 12
Air Quality Not available.
Flu Activity No Activity
METAR KMSO 202253Z 26003KT 10SM CLR 21/03 A2974 RMK AO2 SLP069 T02060033

More Conditions Fewer Conditions

Pressure 29.74 in
Visibility 10.0 miles
Clouds Clear
Dew Point 43 °F
Humidity 50%
Rainfall 0.00 in
Snow Depth 0 in
UV 1 out of 12
Pollen 1.90 out of 12
Air Quality Not available.
Flu Activity No Activity
METAR KMSO 202253Z 26003KT 10SM CLR 21/03 A2974 RMK AO2 SLP069 T02060033

More Conditions Fewer Conditions

10-Day Weather Forecast

Almanac

Astronomy

Oct. 20, 2014 Rise Set
Actual Time 8:03 AM MDT 6:41 PM MDT
Civil Twilight 7:32 AM MDT 7:12 PM MDT
Nautical Twilight 6:56 AM MDT 7:47 PM MDT
Astronomical Twilight 6:21 AM MDT 8:22 PM MDT
Moon 4:43 AM MDT 5:16 PM MDT
Length of Visible Light 11h 40m
Length of Day
10h 38m
Tomorrow will be 3m 12s shorter.
Waning Crescent, 8% of the Moon is Illuminated
Today
Waning Crescent
Oct 23
New
Oct 30
First Quarter
Nov 6
Full
Nov 14
Last Quarter

Today's Extremes

State Highs State Lows

Community

WunderPhotos

Upload Photos

1,763,548 photos uploaded!

WunderBlogs® & News

By Dr. Jeff Masters
Director of Meteorology, Weather Underground
By Kari Strenfel
Meteorologist, Weather Underground
By Christopher C. Burt
Weather Historian, Weather Underground
October 20, 2014
October 20, 2014
October 20, 2014

Nearby

Snow Depth

Station Depth Elevation
Sleeping Woman 0 in 6150 ft
Hoodoo Basin 0 in 6050 ft
North Fork Elk Creek 0 in 6250 ft
Black Pine 1 in 7210 ft
Nez Perce Camp 0 in 5650 ft

Earthquake Activity

City Distance Mag. Time & Date
No recent earthquake activity has been reported nearby.
Minimum magnitude displayed is 2.5.

Coastal Water Temperatures

Place Temperature
No Stations Reporting

Nearby Weather Stations